AirNav   Air Wisconsin pilot careers
 
 785 users online  

H75 Hernando Village Airpark, Inc
Hernando, Mississippi, USA

GOING TO HERNANDO?


FAA INFORMATION EFFECTIVE 04 JANUARY 2018

Location

FAA Identifier: H75
Lat/Long: 34-47-53.3560N / 090-02-13.3290W
34-47.889267N / 090-02.222150W
34.7981544 / -90.0370358
(estimated)
Elevation: 242 ft. / 74 m (estimated)
Variation: 02E (1985)
From city: 2 miles SW of HERNANDO, MS
Time zone: UTC -6 (UTC -5 during Daylight Saving Time)
Zip code: 38632

Airport Operations

Airport use: Open to the public
Activation date: 11/1990
Control tower: no
ARTCC: MEMPHIS CENTER
FSS: GREENWOOD FLIGHT SERVICE STATION
NOTAMs facility: GWO (NOTAM-D service available)
Attendance: DAYLIGHT HOURS
Wind indicator: yes
Segmented circle: no
Lights: ACTVT LIRL RY 14/32 - CTAF.

Airport Communications

CTAF/UNICOM: 122.8
WX ASOS at MEM (15 nm N): PHONE 901-332-3679
WX AWOS-3 at OLV (16 nm NE): 119.925 (662-893-5906)
WX AWOS-3 at UTA (17 nm SW): 118.075 (662-363-1652)

Nearby radio navigation aids

VOR radial/distance  VOR name  Freq  Var
MEMr191/13.3MEMPHIS VORTAC117.5001E
HLIr271/26.7HOLLY SPRINGS VORTAC112.4003E
UJMr066/34.2MARVELL VOR/DME109.6001E
GQEr143/39.4GILMORE VOR/DME113.0004E

Airport Services

Parking: tiedowns

Runway Information

Runway 14/32

Dimensions: 3340 x 65 ft. / 1018 x 20 m
Surface: turf, in fair condition
Weight bearing capacity: 
Single wheel: 12.0
Runway edge lights: low intensity
OTS INDEFLY.
RUNWAY 14  RUNWAY 32
Traffic pattern: leftleft
Obstructions: 92 ft. trees, 1450 ft. from runway, 300 ft. right of centerline, 15:1 slope to clear177 ft. tower, lighted, 2850 ft. from runway, 120 ft. left of centerline, 16:1 slope to clear

Airport Ownership and Management from official FAA records

Ownership: Privately-owned
Owner: HERNANDO VILLAGE AIRPARK INC
2805 GREEN PORT DRIVE
HERNANDO, MS 38632
Phone 662-429-8951
Manager: PAUL E. CASSEL, JR.
2073 GREENHILL DRIVE
HERNANDO, MS 38632
Phone 662-429-8951

Airport Operational Statistics

Aircraft based on the field: 12
Single engine airplanes: 11
Multi engine airplanes: 1
    
Aircraft operations: avg 57/week *
71% local general aviation
27% transient general aviation
2% military
* for 12-month period ending 14 December 2016

Additional Remarks

FOR CD CTC MEM APCH AT 901-842-8457.

Instrument Procedures

There are no published instrument procedures at H75.

Some nearby airports with instrument procedures:

KMEM - Memphis International Airport (15 nm N)
KOLV - Olive Branch Airport (16 nm NE)
KUTA - Tunica Municipal Airport (17 nm SW)
KAWM - West Memphis Municipal Airport (22 nm NW)
M01 - General Dewitt Spain Airport (24 nm N)
 
Loc | Ops | Rwys | IFR | FBO | Links
Com | Nav | Svcs | Stats | Notes


 
Area around H75 (Hernando Village Airpark, Inc)
 
Road maps at: MapQuest Bing Google
 
Aerial photo
WARNING: Photo may not be current or correct
Aerial photo of H75 (Hernando Village Airpark, Inc)
Taken in August 2003

Do you have a better or more recent aerial photo of Hernando Village Airpark, Inc that you would like to share? If so, please send us your photo.

 
Sectional chart

 
Airport distance calculator
Flying to Hernando Village Airpark, Inc? Find the distance to fly.

From to H75

Sunrise and sunset
Times for 20-Jan-2018
 Local
(UTC-6)
 Zulu
(UTC)
Morning civil twilight06:3912:39
Sunrise07:0713:07
Sunset17:1623:16
Evening civil twilight17:4323:43

Current date and time
Zulu (UTC)  20-Jan-2018 13:52:58
Local (UTC-6)  20-Jan-2018 07:52:58
 
METAR
KMEM 
16nm N 
201331Z 17005KT 10SM FEW024 SCT075 SCT250 07/M04 A3018 RMK AO2 T00671039 $
KOLV 
17nm NE 
201250Z 00000KT 10SM FEW024 BKN070 05/M04 A3018
KUTA 
17nm SW 
201335Z AUTO 15005KT 10SM 02/M01 A3020 RMK AO2 TSNO
KAWM 
22nm NW 
201253Z AUTO 18009KT 10SM OVC027 04/M01 A3016 RMK AO2 SLP216 T00441011 TSNO
KPMU 
27nm S 
201335Z AUTO 00000KT 10SM OVC075 05/M01 A3021 RMK AO2 T00461013
TAF
KMEM 
16nm N 
201128Z 2012/2118 20005KT P6SM SCT040 OVC060 FM201300 19007KT P6SM BKN020 FM201800 18008KT P6SM VCSH BKN030 FM210700 18011KT P6SM OVC020
NOTAMs
Click for the latest NOTAMs
NOTAMs are issued by the DoD/FAA and will open in a separate window not controlled by AirNav.

 

 
 

Would you like to see your business listed on this page?

 If your business provides an interesting product or service to pilots, flight crews, aircraft, or users of the Hernando Village Airpark, Inc, you should consider listing it here.  To start the listing process, click on the button below
 
Add a business
 

Other Pages about Hernando Village Airpark, Inc

Update a link
 
Copyright © AirNav, LLC. All rights reserved. Privacy Policy  Contact